Time;durP1;ratioP1;P1;durP2;ratioP2;P2;SDS_P1;SDS_P2;PMS_P1;PMS_P2;Temp;Humidity;BMP_temperature;BMP_pressure;BME280_temperature;BME280_humidity;BME280_pressure;Samples;Min_cycle;Max_cycle;Signal;HPM_P1;HPM_P2
2022/06/10 00:00:03;;;;;;;1.50;1.40;;;23.50;98.00;;;;;;5147078;27;20535;-63
2022/06/10 00:02:34;;;;;;;1.63;1.53;;;23.50;98.60;;;;;;5145764;27;20437;-63
2022/06/10 00:05:06;;;;;;;1.90;1.80;;;23.50;98.80;;;;;;5146049;27;20447;-62
2022/06/10 00:07:37;;;;;;;1.47;1.37;;;23.80;98.90;;;;;;5145830;27;20936;-62
2022/06/10 00:10:09;;;;;;;1.50;1.40;;;23.90;97.90;;;;;;5144250;27;20449;-62
2022/06/10 00:12:40;;;;;;;1.77;1.63;;;24.10;97.60;;;;;;5145394;27;20460;-63
2022/06/10 00:15:13;;;;;;;2.10;1.93;;;24.20;97.50;;;;;;5146953;27;20464;-63
2022/06/10 00:17:48;;;;;;;1.67;1.57;;;24.10;97.80;;;;;;5145563;27;20453;-63
2022/06/10 00:20:22;;;;;;;2.03;1.93;;;24.10;97.40;;;;;;5145939;27;20445;-63
2022/06/10 00:22:54;;;;;;;1.60;1.47;;;24.20;96.50;;;;;;5145492;27;20452;-63
2022/06/10 00:25:25;;;;;;;1.50;1.40;;;24.20;96.50;;;;;;5144676;27;20455;-63
2022/06/10 00:27:57;;;;;;;1.80;1.70;;;24.10;96.60;;;;;;5145400;27;20452;-63
2022/06/10 00:30:31;;;;;;;1.70;1.60;;;24.00;96.90;;;;;;5145262;27;20459;-63
2022/06/10 00:33:02;;;;;;;1.90;1.80;;;23.90;97.90;;;;;;5145477;27;20437;-63
2022/06/10 00:35:34;;;;;;;1.90;1.80;;;23.60;99.90;;;;;;5145386;27;20487;-62
2022/06/10 00:38:06;;;;;;;2.20;1.83;;;23.30;99.90;;;;;;5145252;27;20464;-62
2022/06/10 00:40:39;;;;;;;1.73;1.60;;;22.90;99.90;;;;;;5144307;27;20455;-63
2022/06/10 00:43:15;;;;;;;2.00;1.80;;;22.50;99.90;;;;;;5128893;27;20449;-63
2022/06/10 00:45:57;;;;;;;2.00;1.83;;;22.20;99.90;;;;;;5150241;27;20451;-63
2022/06/10 00:48:36;;;;;;;1.63;1.53;;;21.90;99.90;;;;;;5166164;27;20467;-63
2022/06/10 00:51:16;;;;;;;2.60;2.40;;;21.70;99.90;;;;;;5144329;27;20485;-63
2022/06/10 00:53:48;;;;;;;2.30;2.10;;;21.70;99.90;;;;;;5145084;27;20471;-63
2022/06/10 00:56:23;;;;;;;1.90;1.67;;;21.70;99.90;;;;;;5144772;27;20460;-62
2022/06/10 00:59:01;;;;;;;3.83;1.80;;;21.70;99.90;;;;;;5143686;27;20456;-63
2022/06/10 01:01:34;;;;;;;2.63;1.73;;;21.80;99.90;;;;;;5145092;27;20448;-63
2022/06/10 01:04:06;;;;;;;1.90;1.80;;;21.70;99.90;;;;;;5144625;27;20551;-63
2022/06/10 01:06:36;;;;;;;1.53;1.43;;;21.70;99.90;;;;;;5144928;27;20447;-63
2022/06/10 01:09:08;;;;;;;2.20;1.93;;;21.70;99.90;;;;;;5143171;27;21275;-63
2022/06/10 01:11:56;;;;;;;2.03;1.80;;;21.80;99.90;;;;;;5144773;27;20556;-63
2022/06/10 01:14:40;;;;;;;2.50;2.07;;;21.80;99.90;;;;;;5143646;27;20447;-63
2022/06/10 01:17:25;;;;;;;1.93;1.83;;;21.90;99.90;;;;;;5143608;27;20949;-62
2022/06/10 01:20:08;;;;;;;3.40;1.97;;;21.80;99.90;;;;;;5129094;27;20452;-63
2022/06/10 01:23:15;;;;;;;2.03;1.80;;;21.70;99.90;;;;;;5144429;27;20463;-63
2022/06/10 01:26:13;;;;;;;1.73;1.63;;;21.60;99.90;;;;;;5142965;27;20564;-62
2022/06/10 01:29:09;;;;;;;1.67;1.57;;;21.70;99.90;;;;;;5143477;27;20465;-63
2022/06/10 01:31:48;;;;;;;1.97;1.70;;;21.60;99.90;;;;;;5143880;27;20488;-63
2022/06/10 01:34:29;;;;;;;1.90;1.80;;;21.70;99.90;;;;;;5143895;27;20491;-63
2022/06/10 01:37:05;;;;;;;2.20;2.00;;;21.70;99.90;;;;;;5144008;27;20455;-63
2022/06/10 01:39:47;;;;;;;2.00;1.80;;;21.80;99.90;;;;;;5142871;27;20548;-62
2022/06/10 01:42:27;;;;;;;2.77;1.80;;;21.80;99.90;;;;;;5129935;27;20445;-63
2022/06/10 01:45:04;;;;;;;1.97;1.73;;;21.60;99.90;;;;;;5150443;27;20450;-63
2022/06/10 01:47:47;;;;;;;1.87;1.77;;;21.40;99.90;;;;;;5147548;27;20544;-63
2022/06/10 01:50:23;;;;;;;1.60;1.50;;;21.30;99.90;;;;;;5142669;27;20775;-62
2022/06/10 01:52:59;;;;;;;5.20;2.90;;;21.10;99.90;;;;;;5143758;27;20476;-63
2022/06/10 01:55:34;;;;;;;2.23;1.90;;;21.00;99.90;;;;;;5126335;27;20749;-62
2022/06/10 01:58:09;;;;;;;3.07;2.20;;;20.80;99.90;;;;;;5144138;27;20443;-63
2022/06/10 02:00:44;;;;;;;2.73;2.37;;;20.70;99.90;;;;;;5143883;27;20451;-62
2022/06/10 02:03:24;;;;;;;2.80;2.40;;;20.50;99.90;;;;;;5143463;27;20508;-63
2022/06/10 02:06:00;;;;;;;2.73;2.53;;;20.40;99.90;;;;;;5143564;27;20455;-63
2022/06/10 02:08:34;;;;;;;2.70;2.50;;;20.30;99.90;;;;;;5143356;27;20464;-62
2022/06/10 02:11:09;;;;;;;3.80;2.93;;;20.10;99.90;;;;;;5142291;27;20786;-63
2022/06/10 02:13:44;;;;;;;2.93;2.73;;;19.90;99.90;;;;;;5141798;27;20476;-63
2022/06/10 02:16:19;;;;;;;4.30;3.60;;;19.90;99.90;;;;;;5156117;27;20436;-62
2022/06/10 02:18:56;;;;;;;4.90;4.50;;;19.80;99.90;;;;;;5143371;27;20432;-62
2022/06/10 02:21:30;;;;;;;5.00;4.50;;;19.70;99.90;;;;;;5143107;27;20452;-62
2022/06/10 02:24:05;;;;;;;5.00;4.50;;;19.50;99.90;;;;;;5127703;27;20452;-62
2022/06/10 02:26:37;;;;;;;4.00;3.37;;;19.30;99.90;;;;;;5143461;27;20431;-62
2022/06/10 02:29:16;;;;;;;3.40;3.10;;;19.20;99.90;;;;;;5143087;27;20457;-62
2022/06/10 02:31:49;;;;;;;2.90;2.70;;;18.90;99.90;;;;;;5143441;27;20482;-62
2022/06/10 02:34:22;;;;;;;4.07;2.90;;;18.80;99.90;;;;;;5151365;27;20531;-62
2022/06/10 02:37:07;;;;;;;3.50;3.20;;;18.60;99.90;;;;;;5156923;27;20448;-61
2022/06/10 02:39:45;;;;;;;3.33;2.93;;;18.60;99.90;;;;;;5127387;28;20453;-62
2022/06/10 02:42:25;;;;;;;4.00;3.23;;;18.60;99.90;;;;;;5134275;28;20540;-61
2022/06/10 02:45:09;;;;;;;3.00;2.63;;;18.60;99.90;;;;;;5142921;27;20435;-61
2022/06/10 02:47:47;;;;;;;2.87;2.67;;;18.60;99.90;;;;;;5143136;27;20467;-61
2022/06/10 02:50:20;;;;;;;3.63;2.90;;;18.50;99.90;;;;;;5142192;27;20434;-61
2022/06/10 02:52:51;;;;;;;3.33;2.90;;;18.40;99.90;;;;;;5143594;27;20479;-61
2022/06/10 02:55:25;;;;;;;3.43;3.13;;;18.40;99.90;;;;;;5149331;27;20415;-61
2022/06/10 03:01:16;;;;;;;2.70;2.50;;;18.40;99.90;;;;;;5143903;27;20423;-61
2022/06/10 03:04:13;;;;;;;3.80;3.23;;;18.40;99.90;;;;;;5136057;27;20499;-61
2022/06/10 03:07:05;;;;;;;2.70;2.50;;;18.40;99.90;;;;;;5147171;27;20516;-61
2022/06/10 03:09:43;;;;;;;4.10;3.70;;;18.40;99.90;;;;;;5135733;27;20490;-61
2022/06/10 03:12:22;;;;;;;3.10;2.90;;;18.40;99.90;;;;;;5143939;27;20473;-61
2022/06/10 03:15:03;;;;;;;3.50;3.17;;;18.40;99.90;;;;;;5129859;27;20481;-62
2022/06/10 03:17:40;;;;;;;2.90;2.37;;;18.40;99.90;;;;;;5132184;27;20460;-61
2022/06/10 03:20:17;;;;;;;2.73;2.53;;;18.30;99.90;;;;;;5147243;27;20415;-64
2022/06/10 03:23:13;;;;;;;3.37;3.07;;;18.30;99.90;;;;;;5145933;27;20470;-60
2022/06/10 03:25:48;;;;;;;3.20;2.90;;;18.40;99.90;;;;;;5143989;27;20458;-61
2022/06/10 03:28:27;;;;;;;3.37;3.07;;;18.40;99.90;;;;;;5136131;27;20472;-62
2022/06/10 03:31:08;;;;;;;5.00;3.00;;;18.40;99.90;;;;;;5134911;27;20456;-62
2022/06/10 03:33:44;;;;;;;3.00;2.80;;;18.40;99.90;;;;;;5141232;27;20599;-62
2022/06/10 03:36:17;;;;;;;2.50;2.30;;;18.30;99.90;;;;;;5103349;28;20533;-63
2022/06/10 03:38:52;;;;;;;3.37;2.77;;;18.30;99.90;;;;;;5101628;28;20459;-63
2022/06/10 03:41:28;;;;;;;3.20;2.90;;;18.30;99.90;;;;;;5102838;28;20458;-63
2022/06/10 03:44:01;;;;;;;4.47;3.63;;;18.40;99.90;;;;;;5103911;28;20466;-63
2022/06/10 03:46:34;;;;;;;3.47;3.17;;;18.40;99.90;;;;;;5108948;28;20461;-63
2022/06/10 03:49:10;;;;;;;3.57;3.27;;;18.40;99.90;;;;;;5088720;28;20437;-63
2022/06/10 03:51:41;;;;;;;3.37;3.07;;;18.30;99.90;;;;;;5104180;28;20444;-63
2022/06/10 03:54:19;;;;;;;3.13;2.60;;;18.30;99.90;;;;;;5093001;28;20473;-62
2022/06/10 03:56:51;;;;;;;4.10;3.63;;;18.30;99.90;;;;;;5102178;28;20432;-62
2022/06/10 03:59:22;;;;;;;4.43;3.23;;;18.30;99.90;;;;;;5103449;28;20405;-62
2022/06/10 04:01:53;;;;;;;3.80;3.50;;;18.40;99.90;;;;;;5104182;28;20432;-62
2022/06/10 04:04:23;;;;;;;3.43;3.13;;;18.40;99.90;;;;;;5099628;28;20512;-62
2022/06/10 04:06:54;;;;;;;4.40;4.00;;;18.30;99.90;;;;;;5103580;28;20493;-63
2022/06/10 04:09:29;;;;;;;3.60;3.27;;;18.30;99.90;;;;;;5103567;28;20789;-63
2022/06/10 04:12:00;;;;;;;4.10;3.20;;;18.30;99.90;;;;;;5099756;28;20451;-63
2022/06/10 04:14:31;;;;;;;2.77;2.57;;;18.30;99.90;;;;;;5100884;28;20457;-62
2022/06/10 04:17:02;;;;;;;5.57;3.00;;;18.30;99.90;;;;;;5100013;28;20446;-62
2022/06/10 04:19:33;;;;;;;3.20;2.90;;;18.30;99.90;;;;;;5092274;28;20779;-62
2022/06/10 04:22:06;;;;;;;3.70;2.90;;;18.20;99.90;;;;;;5104494;28;20950;-62
2022/06/10 04:24:39;;;;;;;2.80;2.50;;;18.20;99.90;;;;;;5110650;28;20539;-63
2022/06/10 04:27:10;;;;;;;2.63;2.43;;;18.30;99.90;;;;;;5089960;28;20454;-63
2022/06/10 04:29:40;;;;;;;4.00;2.60;;;18.30;99.90;;;;;;5111518;28;20465;-62
2022/06/10 04:32:12;;;;;;;2.47;2.13;;;18.30;99.90;;;;;;5101914;28;20545;-62
2022/06/10 04:34:42;;;;;;;1.70;1.60;;;18.20;99.90;;;;;;5121562;27;20466;-63
2022/06/10 04:37:13;;;;;;;1.47;1.37;;;18.20;99.90;;;;;;5136310;27;20441;-62
2022/06/10 04:39:46;;;;;;;1.03;1.03;;;18.20;99.90;;;;;;5134395;27;20428;-63
2022/06/10 04:42:16;;;;;;;1.23;1.13;;;18.20;99.90;;;;;;5127571;27;20463;-63
2022/06/10 04:44:47;;;;;;;1.20;1.10;;;18.20;99.90;;;;;;5134203;27;20541;-63
2022/06/10 04:47:18;;;;;;;1.00;1.00;;;18.30;99.90;;;;;;5142853;27;20442;-63
2022/06/10 04:49:49;;;;;;;1.20;1.00;;;18.30;99.90;;;;;;5142288;27;20582;-63
2022/06/10 04:52:19;;;;;;;1.10;0.80;;;18.30;99.90;;;;;;5139511;27;20412;-62
2022/06/10 04:54:57;;;;;;;1.70;0.90;;;18.30;99.90;;;;;;5142206;27;20559;-62
2022/06/10 04:57:28;;;;;;;0.90;0.80;;;18.20;99.90;;;;;;5144400;27;20444;-63
2022/06/10 04:59:59;;;;;;;1.33;0.97;;;18.20;99.90;;;;;;5142930;27;20804;-63
2022/06/10 05:02:30;;;;;;;0.70;0.60;;;18.20;99.90;;;;;;5143377;27;20508;-63
2022/06/10 05:05:01;;;;;;;0.90;0.80;;;18.30;99.90;;;;;;5143180;27;20453;-63
2022/06/10 05:07:31;;;;;;;1.27;1.17;;;18.10;99.90;;;;;;5147231;27;20430;-63
2022/06/10 05:10:05;;;;;;;0.50;0.50;;;18.20;99.90;;;;;;5145258;27;20404;-63
2022/06/10 05:12:35;;;;;;;1.47;0.80;;;18.10;99.90;;;;;;5142793;27;20502;-62
2022/06/10 05:15:07;;;;;;;1.23;0.70;;;18.10;99.90;;;;;;5139574;27;20470;-62
2022/06/10 05:17:38;;;;;;;0.60;0.60;;;18.10;99.90;;;;;;5143652;27;20419;-63
2022/06/10 05:20:10;;;;;;;0.93;0.90;;;18.10;99.90;;;;;;5126769;27;20436;-62
2022/06/10 05:22:41;;;;;;;0.80;0.80;;;18.10;99.90;;;;;;5129652;27;20446;-62
2022/06/10 05:25:14;;;;;;;0.67;0.67;;;18.10;99.90;;;;;;5127537;27;20444;-63
2022/06/10 05:27:45;;;;;;;1.40;0.80;;;18.20;99.90;;;;;;5141264;27;20407;-62
2022/06/10 05:30:19;;;;;;;1.60;1.10;;;18.20;99.90;;;;;;5132763;27;20440;-62
2022/06/10 05:32:51;;;;;;;0.87;0.87;;;18.10;99.90;;;;;;5137058;27;20445;-63
2022/06/10 05:35:22;;;;;;;0.80;0.80;;;18.10;99.90;;;;;;5140545;27;20592;-62
2022/06/10 05:37:53;;;;;;;0.97;0.87;;;18.00;99.90;;;;;;5135161;27;20439;-62
2022/06/10 05:40:28;;;;;;;0.90;0.90;;;18.00;99.90;;;;;;5142939;27;20437;-63
2022/06/10 05:42:59;;;;;;;1.00;0.93;;;18.10;99.90;;;;;;5140573;27;20460;-62
2022/06/10 05:45:30;;;;;;;1.67;1.00;;;18.00;99.90;;;;;;5127478;27;20449;-62
2022/06/10 05:48:04;;;;;;;0.93;0.80;;;18.10;99.90;;;;;;5142028;27;20472;-62
2022/06/10 05:50:40;;;;;;;1.20;0.50;;;18.00;99.90;;;;;;5143684;27;20452;-63
2022/06/10 05:53:15;;;;;;;0.90;0.90;;;18.00;99.90;;;;;;5142644;27;20498;-63
2022/06/10 05:55:47;;;;;;;1.23;0.80;;;18.00;99.90;;;;;;5133416;27;20460;-62
2022/06/10 05:58:18;;;;;;;1.43;0.90;;;18.10;99.90;;;;;;5143956;27;20424;-62
2022/06/10 06:00:49;;;;;;;1.00;0.90;;;18.10;99.90;;;;;;5133715;27;20457;-62
2022/06/10 06:03:20;;;;;;;1.43;1.00;;;18.00;99.90;;;;;;5124901;27;20483;-62
2022/06/10 06:05:51;;;;;;;0.97;0.80;;;18.00;99.90;;;;;;5140409;27;20453;-62
2022/06/10 06:08:21;;;;;;;1.40;1.30;;;18.00;99.90;;;;;;5142416;27;20484;-61
2022/06/10 06:10:54;;;;;;;0.90;0.90;;;18.00;99.90;;;;;;5140007;27;20474;-63
2022/06/10 06:13:25;;;;;;;2.93;1.00;;;17.90;99.90;;;;;;5135893;27;20443;-62
2022/06/10 06:15:56;;;;;;;1.40;1.20;;;17.90;99.90;;;;;;5136665;27;20491;-62
2022/06/10 06:18:27;;;;;;;0.77;0.77;;;17.90;99.90;;;;;;5140078;27;20446;-62
2022/06/10 06:20:58;;;;;;;0.70;0.70;;;17.90;99.90;;;;;;5135591;27;20491;-62
2022/06/10 06:23:29;;;;;;;1.27;1.17;;;17.90;99.90;;;;;;5141051;27;20435;-62
2022/06/10 06:26:03;;;;;;;1.03;0.97;;;17.90;99.90;;;;;;5126188;27;20549;-63
2022/06/10 06:28:34;;;;;;;0.80;0.80;;;17.90;99.90;;;;;;5138099;27;20759;-62
2022/06/10 06:31:06;;;;;;;1.00;0.80;;;17.80;99.90;;;;;;5126654;27;20472;-62
2022/06/10 06:33:37;;;;;;;0.80;0.80;;;17.80;99.90;;;;;;5140105;27;20424;-62
2022/06/10 06:36:10;;;;;;;1.50;0.97;;;17.80;99.90;;;;;;5136413;27;20463;-62
2022/06/10 06:38:41;;;;;;;1.33;0.80;;;17.80;99.90;;;;;;5143297;27;20545;-62
2022/06/10 06:41:14;;;;;;;0.97;0.83;;;17.90;99.90;;;;;;5140514;27;20423;-63
2022/06/10 06:43:46;;;;;;;2.63;1.00;;;17.90;99.90;;;;;;5142106;27;20443;-62
2022/06/10 06:46:19;;;;;;;0.70;0.70;;;18.00;99.90;;;;;;5141941;27;20488;-62
2022/06/10 06:48:50;;;;;;;1.27;1.17;;;18.00;99.90;;;;;;5142948;28;20556;-63
2022/06/10 06:51:20;;;;;;;0.77;0.77;;;17.90;99.90;;;;;;5141428;27;20456;-61
2022/06/10 06:53:51;;;;;;;1.00;0.90;;;17.90;99.90;;;;;;5135316;28;20467;-62
2022/06/10 06:56:23;;;;;;;1.17;1.03;;;17.90;99.90;;;;;;5143049;27;20448;-62
2022/06/10 06:58:54;;;;;;;2.30;0.90;;;17.90;99.90;;;;;;5132793;27;20449;-62
2022/06/10 07:01:25;;;;;;;1.63;1.10;;;17.90;99.90;;;;;;5128011;28;20435;-61
2022/06/10 07:03:59;;;;;;;0.50;0.50;;;17.90;99.90;;;;;;5142055;28;21179;-61
2022/06/10 07:06:30;;;;;;;0.83;0.57;;;17.80;99.90;;;;;;5141544;27;20457;-61
2022/06/10 07:09:01;;;;;;;1.53;0.77;;;17.80;99.90;;;;;;5140223;27;20491;-62
2022/06/10 07:11:35;;;;;;;0.50;0.40;;;17.70;99.90;;;;;;5141657;28;20451;-61
2022/06/10 07:14:13;;;;;;;0.80;0.50;;;17.70;99.90;;;;;;5139678;28;20452;-61
2022/06/10 07:16:43;;;;;;;0.53;0.53;;;17.60;99.90;;;;;;5142132;27;20811;-61
2022/06/10 07:19:14;;;;;;;0.40;0.40;;;17.60;99.90;;;;;;5141850;27;20415;-61
2022/06/10 07:21:45;;;;;;;0.57;0.57;;;17.60;99.90;;;;;;5139927;28;20544;-63
2022/06/10 07:24:22;;;;;;;0.60;0.50;;;17.60;99.90;;;;;;5124108;28;20524;-63
2022/06/10 07:26:55;;;;;;;0.50;0.50;;;17.60;99.90;;;;;;5137479;28;20478;-62
2022/06/10 07:29:25;;;;;;;0.67;0.67;;;17.50;99.90;;;;;;5142065;27;20498;-61
2022/06/10 07:31:56;;;;;;;0.87;0.67;;;17.50;99.90;;;;;;5142888;27;20423;-61
2022/06/10 07:34:27;;;;;;;0.70;0.70;;;17.50;99.90;;;;;;5142126;27;20499;-62
2022/06/10 07:36:58;;;;;;;1.03;0.50;;;17.40;99.90;;;;;;5142293;27;20459;-62
2022/06/10 07:39:29;;;;;;;0.60;0.60;;;17.50;99.90;;;;;;5141669;27;20431;-62
2022/06/10 07:42:01;;;;;;;0.60;0.57;;;17.50;99.90;;;;;;5143310;27;20421;-62
2022/06/10 07:44:35;;;;;;;0.60;0.60;;;17.50;99.90;;;;;;5142843;27;20456;-62
2022/06/10 07:47:11;;;;;;;0.93;0.70;;;17.50;99.90;;;;;;5133772;27;20460;-62
2022/06/10 07:49:43;;;;;;;0.67;0.67;;;17.50;99.90;;;;;;5138436;27;20461;-63
2022/06/10 07:52:13;;;;;;;0.50;0.50;;;17.50;99.90;;;;;;5139832;27;20452;-63
2022/06/10 07:54:44;;;;;;;0.63;0.60;;;17.50;99.90;;;;;;5143343;27;20478;-63
2022/06/10 07:57:17;;;;;;;1.47;0.83;;;17.60;99.90;;;;;;5137913;27;20556;-62
2022/06/10 07:59:47;;;;;;;0.63;0.50;;;17.60;99.90;;;;;;5146596;27;20451;-62
2022/06/10 08:02:18;;;;;;;0.50;0.50;;;17.60;99.90;;;;;;5144545;27;20474;-63
2022/06/10 08:04:49;;;;;;;1.00;0.60;;;17.70;99.90;;;;;;5144485;27;20456;-62
2022/06/10 08:07:20;;;;;;;0.80;0.70;;;17.60;99.90;;;;;;5130306;27;20445;-62
2022/06/10 08:09:51;;;;;;;0.60;0.40;;;17.60;99.90;;;;;;5141277;27;20471;-63
2022/06/10 08:12:23;;;;;;;0.80;0.77;;;17.60;99.90;;;;;;5146674;27;20459;-62
2022/06/10 08:14:54;;;;;;;0.80;0.80;;;17.60;99.90;;;;;;5143040;27;20495;-63
2022/06/10 08:17:25;;;;;;;0.77;0.77;;;17.60;99.90;;;;;;5144551;27;20797;-62
2022/06/10 08:19:56;;;;;;;0.70;0.67;;;17.60;99.90;;;;;;5143418;27;20431;-63
2022/06/10 08:22:35;;;;;;;0.50;0.50;;;17.60;99.90;;;;;;5144280;27;20449;-62
2022/06/10 08:25:11;;;;;;;1.13;0.83;;;17.60;99.90;;;;;;5142880;27;20507;-63
2022/06/10 08:27:44;;;;;;;0.50;0.50;;;17.60;99.90;;;;;;5145733;27;20444;-63
2022/06/10 08:30:16;;;;;;;0.53;0.50;;;17.60;99.90;;;;;;5145531;27;20416;-62
2022/06/10 08:32:47;;;;;;;0.93;0.80;;;17.60;99.90;;;;;;5145032;27;20507;-63
2022/06/10 08:35:18;;;;;;;0.80;0.70;;;17.70;99.90;;;;;;5145062;27;20482;-62
2022/06/10 08:37:49;;;;;;;1.27;1.13;;;17.60;99.90;;;;;;5145008;27;20914;-62
2022/06/10 08:40:27;;;;;;;1.20;1.10;;;17.60;99.90;;;;;;5144046;27;20453;-62
2022/06/10 08:43:08;;;;;;;1.10;0.90;;;17.60;99.90;;;;;;5145874;27;20795;-63
2022/06/10 08:45:49;;;;;;;2.10;1.10;;;17.60;99.90;;;;;;5145078;27;20431;-62
2022/06/10 08:48:31;;;;;;;1.20;1.10;;;17.60;99.90;;;;;;5138999;27;20464;-62
2022/06/10 08:51:16;;;;;;;1.27;1.00;;;17.60;99.90;;;;;;5144654;27;20440;-62
2022/06/10 08:54:13;;;;;;;1.30;1.30;;;17.60;99.90;;;;;;5144223;27;20986;-62
2022/06/10 08:56:48;;;;;;;1.03;0.93;;;17.60;99.90;;;;;;5144366;27;20484;-62
2022/06/10 08:59:29;;;;;;;0.60;0.60;;;17.60;99.90;;;;;;5143916;27;20445;-62
2022/06/10 09:02:12;;;;;;;0.80;0.80;;;17.60;99.90;;;;;;5138846;27;20466;-62
2022/06/10 09:04:54;;;;;;;1.07;0.70;;;17.60;99.90;;;;;;5129890;27;20445;-62
2022/06/10 09:07:30;;;;;;;1.20;1.10;;;17.50;99.90;;;;;;5143709;27;20435;-63
2022/06/10 09:10:03;;;;;;;1.20;1.10;;;17.50;99.90;;;;;;5141939;27;20456;-62
2022/06/10 09:12:49;;;;;;;0.90;0.80;;;17.50;99.90;;;;;;5143732;27;20435;-62
2022/06/10 09:15:22;;;;;;;0.70;0.70;;;17.60;99.90;;;;;;5143341;27;20869;-62
2022/06/10 09:17:59;;;;;;;0.70;0.70;;;17.50;99.90;;;;;;5145311;27;20928;-62
2022/06/10 09:20:35;;;;;;;0.70;0.70;;;17.50;99.90;;;;;;5141535;27;20524;-62
2022/06/10 09:23:12;;;;;;;0.70;0.70;;;17.50;99.90;;;;;;5141995;27;20460;-62
2022/06/10 09:25:45;;;;;;;0.80;0.80;;;17.40;99.90;;;;;;5142166;27;20474;-62
2022/06/10 09:28:17;;;;;;;1.13;0.90;;;17.40;99.90;;;;;;5144499;27;20427;-62
2022/06/10 09:30:55;;;;;;;0.47;0.40;;;17.40;99.90;;;;;;5134175;27;20439;-62
2022/06/10 09:33:31;;;;;;;0.40;0.40;;;17.40;99.90;;;;;;5134718;27;20565;-62
2022/06/10 09:36:07;;;;;;;0.40;0.40;;;17.40;99.90;;;;;;5133616;27;20511;-62
2022/06/10 09:38:46;;;;;;;0.30;0.30;;;17.30;99.90;;;;;;5143664;27;20441;-62
2022/06/10 09:41:30;;;;;;;0.80;0.50;;;17.30;99.90;;;;;;5133024;27;20471;-62
2022/06/10 09:44:11;;;;;;;1.90;0.67;;;17.30;99.90;;;;;;5127700;27;20498;-62
2022/06/10 09:47:05;;;;;;;0.43;0.40;;;17.30;99.90;;;;;;5143818;27;20502;-62
2022/06/10 09:50:08;;;;;;;0.40;0.30;;;17.30;99.90;;;;;;5143860;27;20783;-62
2022/06/10 09:52:48;;;;;;;0.40;0.30;;;17.30;99.90;;;;;;5127561;27;20459;-62
2022/06/10 09:55:34;;;;;;;0.40;0.40;;;17.30;99.90;;;;;;5138210;27;20520;-62
2022/06/10 09:58:46;;;;;;;0.40;0.30;;;17.30;99.90;;;;;;5137854;27;20445;-62
2022/06/10 10:01:35;;;;;;;0.43;0.43;;;17.30;99.90;;;;;;5122530;27;20840;-62
2022/06/10 10:04:41;;;;;;;0.50;0.40;;;17.20;99.90;;;;;;5142239;27;20464;-62
2022/06/10 10:07:26;;;;;;;0.40;0.30;;;17.20;99.90;;;;;;5140955;27;20941;-61
2022/06/10 10:10:14;;;;;;;0.80;0.20;;;17.20;99.90;;;;;;5142352;27;20452;-62
2022/06/10 10:12:53;;;;;;;0.97;0.40;;;17.20;99.90;;;;;;5143721;27;20467;-62
2022/06/10 10:15:43;;;;;;;0.47;0.43;;;17.20;99.90;;;;;;5135282;27;20469;-62
2022/06/10 10:18:41;;;;;;;0.40;0.30;;;17.20;99.90;;;;;;5141799;27;20439;-61
2022/06/10 10:21:14;;;;;;;0.37;0.30;;;17.20;99.90;;;;;;5131367;27;20436;-62
2022/06/10 10:23:49;;;;;;;0.60;0.30;;;17.20;99.90;;;;;;5142900;27;20449;-62
2022/06/10 10:26:26;;;;;;;0.40;0.30;;;17.20;99.90;;;;;;5135288;27;20461;-61
2022/06/10 10:29:01;;;;;;;0.60;0.60;;;17.30;99.90;;;;;;5134681;27;20455;-62
2022/06/10 10:31:39;;;;;;;1.57;0.37;;;17.30;99.90;;;;;;5141845;27;20452;-62
2022/06/10 10:34:17;;;;;;;0.33;0.23;;;17.30;99.90;;;;;;5143210;27;20544;-62
2022/06/10 10:36:51;;;;;;;0.50;0.40;;;17.20;99.90;;;;;;5142032;27;20467;-61
2022/06/10 10:39:35;;;;;;;0.30;0.30;;;17.20;99.90;;;;;;5134523;27;20439;-62
2022/06/10 10:42:14;;;;;;;0.43;0.30;;;17.20;99.90;;;;;;5137871;27;20431;-62
2022/06/10 10:44:47;;;;;;;0.67;0.40;;;17.20;99.90;;;;;;5127118;28;20497;-61
2022/06/10 10:47:24;;;;;;;0.30;0.20;;;17.20;99.90;;;;;;5142215;27;20892;-62
2022/06/10 10:49:58;;;;;;;0.60;0.40;;;17.20;99.90;;;;;;5127920;27;20444;-62
2022/06/10 10:52:31;;;;;;;0.70;0.40;;;17.20;99.90;;;;;;5140497;27;20464;-62
2022/06/10 10:55:21;;;;;;;0.30;0.20;;;17.20;99.90;;;;;;5136507;28;20879;-62
2022/06/10 10:58:06;;;;;;;0.30;0.30;;;17.20;99.90;;;;;;5136394;28;20838;-62
2022/06/10 11:00:41;;;;;;;0.30;0.30;;;17.20;99.90;;;;;;5141157;27;20431;-62
2022/06/10 11:03:26;;;;;;;0.37;0.30;;;17.10;99.90;;;;;;5143178;27;20459;-62
2022/06/10 11:05:59;;;;;;;0.30;0.20;;;17.10;99.90;;;;;;5143276;28;20451;-62
2022/06/10 11:08:33;;;;;;;0.40;0.23;;;17.20;99.90;;;;;;5135245;27;20453;-62
2022/06/10 11:11:26;;;;;;;0.40;0.30;;;17.20;99.90;;;;;;5128518;28;20462;-62
2022/06/10 11:14:05;;;;;;;0.53;0.40;;;17.20;99.90;;;;;;5127294;28;20438;-61
2022/06/10 11:16:40;;;;;;;0.60;0.40;;;17.10;99.90;;;;;;5131712;28;20519;-62
2022/06/10 11:19:25;;;;;;;1.13;0.20;;;17.10;99.90;;;;;;5137950;28;20523;-62
2022/06/10 11:22:11;;;;;;;0.60;0.40;;;17.10;99.90;;;;;;5140012;27;20468;-62
2022/06/10 11:24:43;;;;;;;0.30;0.30;;;17.10;99.90;;;;;;5143707;27;20495;-62
2022/06/10 11:27:28;;;;;;;0.30;0.30;;;17.10;99.90;;;;;;5139674;27;20456;-62
2022/06/10 11:30:06;;;;;;;1.13;0.20;;;17.10;99.90;;;;;;5140853;27;20517;-61
2022/06/10 11:32:41;;;;;;;0.50;0.30;;;17.10;99.90;;;;;;5134618;27;20838;-61
2022/06/10 11:35:26;;;;;;;0.30;0.30;;;17.00;99.90;;;;;;5146236;27;20479;-61
2022/06/10 11:37:59;;;;;;;0.40;0.30;;;17.00;99.90;;;;;;5143567;27;20541;-61
2022/06/10 11:40:40;;;;;;;0.40;0.20;;;17.10;99.90;;;;;;5143340;27;20445;-62
2022/06/10 11:43:19;;;;;;;0.40;0.30;;;17.10;99.90;;;;;;5138775;27;20471;-61
2022/06/10 11:45:55;;;;;;;0.40;0.30;;;17.00;99.90;;;;;;5137087;27;20461;-62
2022/06/10 11:48:36;;;;;;;1.00;0.40;;;17.10;99.90;;;;;;5136238;27;20502;-61
2022/06/10 11:51:14;;;;;;;0.40;0.30;;;17.10;99.90;;;;;;5139551;27;20517;-62
2022/06/10 11:53:50;;;;;;;0.97;0.30;;;17.10;99.90;;;;;;5146507;27;21047;-61
2022/06/10 12:02:15;;;;;;;0.30;0.30;;;17.00;99.90;;;;;;5142706;27;20458;-61
2022/06/10 12:04:55;;;;;;;0.40;0.33;;;17.00;99.90;;;;;;5145890;27;20415;-61
2022/06/10 12:07:29;;;;;;;0.30;0.27;;;17.00;99.90;;;;;;5144845;27;20844;-62
2022/06/10 12:10:04;;;;;;;0.50;0.40;;;17.00;99.90;;;;;;5136257;27;20455;-61
2022/06/10 12:12:40;;;;;;;0.40;0.30;;;17.00;99.90;;;;;;5130315;27;20419;-61
2022/06/10 12:15:26;;;;;;;0.57;0.37;;;17.00;99.90;;;;;;5144836;27;20442;-61
2022/06/10 12:18:02;;;;;;;0.40;0.30;;;17.00;99.90;;;;;;5134598;27;20947;-61
2022/06/10 12:20:41;;;;;;;0.50;0.40;;;17.00;99.90;;;;;;5141633;27;20431;-61
2022/06/10 12:23:16;;;;;;;0.47;0.43;;;17.00;99.90;;;;;;5139349;27;20539;-61
2022/06/10 12:25:55;;;;;;;0.30;0.30;;;17.10;99.90;;;;;;5145015;27;20434;-61
2022/06/10 12:28:36;;;;;;;0.40;0.30;;;17.00;99.90;;;;;;5129302;27;20990;-62
2022/06/10 12:31:21;;;;;;;0.50;0.40;;;17.00;99.90;;;;;;5143444;27;20464;-61
2022/06/10 12:33:59;;;;;;;0.47;0.40;;;17.00;99.90;;;;;;5143719;27;20457;-61
2022/06/10 12:36:34;;;;;;;0.87;0.40;;;17.00;99.90;;;;;;5138649;27;20423;-61
2022/06/10 12:39:11;;;;;;;0.43;0.43;;;17.00;99.90;;;;;;5143394;27;20492;-61
2022/06/10 12:41:47;;;;;;;0.40;0.40;;;17.10;99.90;;;;;;5130573;27;20479;-62
2022/06/10 12:44:23;;;;;;;0.43;0.40;;;17.10;99.90;;;;;;5142883;27;20460;-62
2022/06/10 12:46:59;;;;;;;0.50;0.40;;;17.10;99.90;;;;;;5141337;27;20453;-62
2022/06/10 12:49:34;;;;;;;0.37;0.37;;;17.10;99.90;;;;;;5142883;27;20465;-62
2022/06/10 12:52:39;;;;;;;0.43;0.43;;;17.10;99.90;;;;;;5144799;27;20935;-62
2022/06/10 12:55:24;;;;;;;0.57;0.57;;;17.10;99.90;;;;;;5142753;27;20469;-62
2022/06/10 12:57:56;;;;;;;0.33;0.33;;;17.10;99.90;;;;;;5143161;27;20530;-61
2022/06/10 13:00:45;;;;;;;1.00;0.50;;;17.10;99.90;;;;;;5142181;27;20457;-62
2022/06/10 13:03:44;;;;;;;0.50;0.40;;;17.00;99.90;;;;;;5140167;27;20480;-62
2022/06/10 13:06:56;;;;;;;0.70;0.70;;;17.10;99.90;;;;;;5144489;27;20549;-62
2022/06/10 13:09:30;;;;;;;1.30;0.50;;;17.10;99.90;;;;;;5059735;28;20459;-62
2022/06/10 13:12:22;;;;;;;0.60;0.40;;;17.10;99.90;;;;;;5060639;28;20415;-62
2022/06/10 13:15:14;;;;;;;1.27;0.50;;;17.10;99.90;;;;;;5057730;28;20449;-62
2022/06/10 13:17:57;;;;;;;0.53;0.53;;;17.10;99.90;;;;;;5060529;28;20467;-62
2022/06/10 13:20:29;;;;;;;1.60;0.50;;;17.20;99.90;;;;;;5046549;28;20456;-62
2022/06/10 13:23:18;;;;;;;1.00;0.70;;;17.20;99.90;;;;;;5061321;28;20419;-62
2022/06/10 13:25:52;;;;;;;0.73;0.67;;;17.20;99.90;;;;;;5058215;28;20423;-62
2022/06/10 13:28:27;;;;;;;0.60;0.60;;;17.20;99.90;;;;;;5060507;28;20520;-62
2022/06/10 13:31:07;;;;;;;1.23;0.50;;;17.20;99.90;;;;;;5051309;28;20468;-65
2022/06/10 13:33:37;;;;;;;0.40;0.40;;;17.20;99.90;;;;;;5054862;28;20511;-63
2022/06/10 13:36:15;;;;;;;0.67;0.60;;;17.30;99.90;;;;;;5048826;28;20465;-61
2022/06/10 13:38:55;;;;;;;1.10;0.50;;;17.30;99.90;;;;;;5048950;28;20498;-62
2022/06/10 13:44:38;;;;;;;0.60;0.60;;;17.40;99.90;;;;;;5064308;27;20529;-62
2022/06/10 13:47:23;;;;;;;0.57;0.57;;;17.50;99.90;;;;;;5141900;27;20438;-62